createdAt,value
2022-09-21T00:04:07.994Z,100266.44
2022-09-21T00:09:00.426Z,100269.03
2022-09-21T00:13:55.271Z,100270.13
2022-09-21T00:18:48.594Z,100276.84
2022-09-21T00:23:41.419Z,100271.50
2022-09-21T00:28:33.144Z,100261.47
2022-09-21T00:33:25.190Z,100265.94
2022-09-21T00:38:16.801Z,100259.91
2022-09-21T00:43:16.366Z,100263.69
2022-09-21T00:48:08.114Z,100261.28
2022-09-21T00:53:00.147Z,100251.88
2022-09-21T00:57:57.728Z,100258.16
2022-09-21T01:02:49.577Z,100255.88
2022-09-21T01:07:46.049Z,100255.28
2022-09-21T01:12:54.728Z,100260.16
2022-09-21T01:18:02.013Z,100259.38
2022-09-21T01:23:15.129Z,100255.66
2022-09-21T01:28:09.630Z,100257.19
2022-09-21T01:33:26.067Z,100258.47
2022-09-21T01:38:26.978Z,100248.94
2022-09-21T01:43:27.504Z,100242.50
2022-09-21T01:48:22.390Z,100242.56
2022-09-21T01:53:21.013Z,100241.44
2022-09-21T01:58:30.342Z,100237.09
2022-09-21T02:03:33.889Z,100236.56
2022-09-21T02:08:29.074Z,100244.59
2022-09-21T02:13:27.719Z,100235.41
2022-09-21T02:18:35.743Z,100229.56
2022-09-21T02:23:57.980Z,100234.66
2022-09-21T02:29:01.733Z,100227.97
2022-09-21T02:34:02.153Z,100230.31
2022-09-21T02:39:07.572Z,100227.81
2022-09-21T02:44:01.971Z,100224.66
2022-09-21T02:48:57.969Z,100223.22
2022-09-21T02:53:52.865Z,100227.44
2022-09-21T02:58:49.861Z,100229.38
2022-09-21T03:03:41.732Z,100229.00
2022-09-21T03:08:33.400Z,100228.00
2022-09-21T03:13:25.547Z,100230.94
2022-09-21T03:18:17.242Z,100230.72
2022-09-21T03:23:08.970Z,100231.34
2022-09-21T03:28:01.374Z,100222.09
2022-09-21T03:32:54.042Z,100213.94
2022-09-21T03:37:48.821Z,100227.31
2022-09-21T03:42:41.673Z,100207.88
2022-09-21T03:47:33.436Z,100203.47
2022-09-21T03:52:25.093Z,100201.66
2022-09-21T03:57:16.792Z,100208.84
2022-09-21T04:02:08.552Z,100199.88
2022-09-21T04:07:00.670Z,100212.69
2022-09-21T04:11:54.145Z,100209.19
2022-09-21T04:16:46.124Z,100207.97
2022-09-21T04:21:37.801Z,100201.72
2022-09-21T04:26:32.729Z,100200.72
2022-09-21T04:31:28.805Z,100195.09
2022-09-21T04:36:22.226Z,100209.56
2022-09-21T04:41:15.371Z,100199.56
2022-09-21T04:46:09.122Z,100207.97
2022-09-21T04:51:00.832Z,100211.56
2022-09-21T04:55:52.711Z,100204.06
2022-09-21T05:00:44.315Z,100212.84
2022-09-21T05:05:35.961Z,100202.84
2022-09-21T05:10:27.614Z,100209.16
2022-09-21T05:15:19.521Z,100199.97
2022-09-21T05:20:11.863Z,100208.13
2022-09-21T05:25:04.125Z,100202.94
2022-09-21T05:29:56.051Z,100190.41
2022-09-21T05:35:06.568Z,100203.56
2022-09-21T05:39:58.506Z,100210.72
2022-09-21T05:44:50.729Z,100202.56
2022-09-21T05:50:20.903Z,100207.59
2022-09-21T05:55:43.255Z,100201.31
2022-09-21T06:01:02.064Z,100197.38
2022-09-21T06:05:53.802Z,100199.44
2022-09-21T06:10:45.945Z,100196.13
2022-09-21T06:15:38.526Z,100206.38
2022-09-21T06:20:30.261Z,100206.16
2022-09-21T06:25:22.052Z,100202.81
2022-09-21T06:30:13.951Z,100203.41
2022-09-21T06:35:06.047Z,100208.00
2022-09-21T06:39:57.705Z,100205.28
2022-09-21T06:44:49.340Z,100214.25
2022-09-21T06:49:42.667Z,100219.44
2022-09-21T06:54:34.496Z,100227.34
2022-09-21T06:59:26.112Z,100233.63
2022-09-21T07:04:20.873Z,100234.25
2022-09-21T07:14:26.534Z,100226.50
2022-09-21T07:19:18.138Z,100223.78
2022-09-21T07:24:12.449Z,100222.50
2022-09-21T07:29:04.435Z,100215.44
2022-09-21T07:33:58.784Z,100209.06
2022-09-21T07:38:50.429Z,100209.44
2022-09-21T07:43:42.431Z,100211.19
2022-09-21T07:48:34.196Z,100196.66
2022-09-21T07:53:26.327Z,100201.09
2022-09-21T07:58:36.794Z,100201.91
2022-09-21T08:03:28.417Z,100206.84
2022-09-21T08:08:20.884Z,100206.19
2022-09-21T08:13:12.622Z,100210.69
2022-09-21T08:18:07.331Z,100209.75
2022-09-21T08:23:00.131Z,100219.63
2022-09-21T08:27:52.536Z,100211.81
2022-09-21T08:32:51.539Z,100213.94
2022-09-21T08:37:43.741Z,100214.19
2022-09-21T08:42:57.052Z,100212.50
2022-09-21T08:48:02.775Z,100214.16
2022-09-21T08:53:01.726Z,100210.22
2022-09-21T08:57:53.547Z,100205.88
2022-09-21T09:03:10.793Z,100211.28
2022-09-21T09:08:24.456Z,100208.09
2022-09-21T09:13:31.150Z,100200.94
2022-09-21T09:18:53.710Z,100197.22
2022-09-21T09:23:52.087Z,100196.41
2022-09-21T09:29:28.597Z,100201.47
2022-09-21T09:34:24.921Z,100191.88
2022-09-21T09:39:17.558Z,100189.09
2022-09-21T09:44:12.263Z,100187.75
2022-09-21T09:49:06.809Z,100188.00
2022-09-21T09:54:00.980Z,100182.81
2022-09-21T09:59:06.964Z,100197.97
2022-09-21T10:04:07.697Z,100192.19
2022-09-21T10:09:00.062Z,100180.28
2022-09-21T10:13:52.912Z,100189.97
2022-09-21T10:19:01.760Z,100189.31
2022-09-21T10:24:03.340Z,100187.84
2022-09-21T10:29:17.243Z,100194.97
2022-09-21T10:34:15.960Z,100185.88
2022-09-21T10:39:31.946Z,100187.16
2022-09-21T10:44:55.198Z,100183.44
2022-09-21T10:49:52.858Z,100172.97
2022-09-21T10:54:44.432Z,100172.63
2022-09-21T10:59:37.514Z,100172.75
2022-09-21T11:04:51.525Z,100168.94
2022-09-21T11:09:46.230Z,100169.84
2022-09-21T11:14:49.676Z,100162.69
2022-09-21T11:19:47.215Z,100159.44
2022-09-21T11:24:58.025Z,100160.59
2022-09-21T11:30:03.473Z,100156.41
2022-09-21T11:35:10.831Z,100155.03
2022-09-21T11:40:38.099Z,100150.72
2022-09-21T11:45:35.562Z,100134.56
2022-09-21T11:50:46.682Z,100142.00
2022-09-21T11:55:57.354Z,100143.16
2022-09-21T12:00:58.129Z,100129.81
2022-09-21T12:06:18.108Z,100126.59
2022-09-21T12:11:18.644Z,100122.78
2022-09-21T12:16:11.658Z,100113.13
2022-09-21T12:21:15.653Z,100118.09
2022-09-21T12:26:09.637Z,100106.28
2022-09-21T12:31:09.693Z,100109.31
2022-09-21T12:36:10.450Z,100102.13
2022-09-21T12:41:20.481Z,100099.38
2022-09-21T12:46:24.351Z,100096.63
2022-09-21T12:51:32.936Z,100101.84
2022-09-21T12:56:50.198Z,100090.00
2022-09-21T13:01:52.251Z,100089.41
2022-09-21T13:07:21.169Z,100074.81
2022-09-21T13:12:30.622Z,100076.78
2022-09-21T13:17:27.958Z,100070.44
2022-09-21T13:22:20.090Z,100068.22
2022-09-21T13:27:13.837Z,100065.22
2022-09-21T13:32:11.766Z,100061.63
2022-09-21T13:37:14.137Z,100052.00
2022-09-21T13:42:33.756Z,100053.91
2022-09-21T13:47:31.380Z,100047.03
2022-09-21T13:52:30.143Z,100047.00
2022-09-21T13:57:32.215Z,100031.31
2022-09-21T14:02:37.132Z,100045.09
2022-09-21T14:07:31.461Z,100040.41
2022-09-21T14:12:26.969Z,100028.00
2022-09-21T14:17:35.446Z,100028.53
2022-09-21T14:22:27.203Z,100036.53
2022-09-21T14:27:32.871Z,100031.31
2022-09-21T14:32:26.781Z,100014.78
2022-09-21T14:37:29.465Z,100012.00
2022-09-21T14:42:27.312Z,100005.13
2022-09-21T14:47:47.624Z,100006.75
2022-09-21T14:53:01.848Z,99994.66
2022-09-21T14:58:22.235Z,99985.31
2022-09-21T15:03:30.771Z,99984.19
2022-09-21T15:09:00.348Z,99981.41
2022-09-21T15:14:15.809Z,99983.00
2022-09-21T15:19:16.367Z,99972.28
2022-09-21T15:24:34.366Z,99966.19
2022-09-21T15:29:28.019Z,99966.72
2022-09-21T15:34:20.468Z,99961.78
2022-09-21T15:39:32.449Z,99959.78
2022-09-21T15:44:31.698Z,99954.00
2022-09-21T15:49:23.821Z,99947.72
2022-09-21T15:54:42.328Z,99944.72
2022-09-21T15:59:34.533Z,99938.09
2022-09-21T16:04:28.174Z,99930.66
2022-09-21T16:09:34.462Z,99934.81
2022-09-21T16:14:45.070Z,99928.19
2022-09-21T16:19:44.322Z,99921.59
2022-09-21T16:24:36.765Z,99923.50
2022-09-21T16:29:40.324Z,99924.31
2022-09-21T16:34:35.245Z,99921.78
2022-09-21T16:39:28.098Z,99913.50
2022-09-21T16:44:22.915Z,99919.50
2022-09-21T16:49:16.902Z,99921.69
2022-09-21T16:54:08.852Z,99918.88
2022-09-21T16:59:03.781Z,99921.59
2022-09-21T17:03:56.128Z,99921.00
2022-09-21T17:08:49.155Z,99928.09
2022-09-21T17:13:41.099Z,99917.38
2022-09-21T17:18:33.608Z,99911.25
2022-09-21T17:23:29.235Z,99914.78
2022-09-21T17:28:26.143Z,99920.00
2022-09-21T17:33:19.953Z,99914.97
2022-09-21T17:38:14.606Z,99908.03
2022-09-21T17:43:27.652Z,99920.03
2022-09-21T17:48:21.762Z,99908.03
2022-09-21T17:53:32.884Z,99912.06
2022-09-21T17:58:44.627Z,99914.44
2022-09-21T18:03:41.193Z,99915.69
2022-09-21T18:08:34.958Z,99907.94
2022-09-21T18:13:38.270Z,99917.72
2022-09-21T18:18:31.741Z,99916.53
2022-09-21T18:23:50.111Z,99922.38
2022-09-21T18:28:46.467Z,99917.53
2022-09-21T18:33:47.069Z,99923.91
2022-09-21T18:38:52.526Z,99916.56
2022-09-21T18:43:49.151Z,99920.50
2022-09-21T18:49:06.922Z,99913.44
2022-09-21T18:54:00.156Z,99909.16
2022-09-21T18:58:52.603Z,99912.31
2022-09-21T19:03:45.092Z,99908.91
2022-09-21T19:09:06.111Z,99918.69
2022-09-21T19:14:00.600Z,99909.84
2022-09-21T19:19:14.284Z,99918.94
2022-09-21T19:24:09.134Z,99915.06
2022-09-21T19:29:27.148Z,99924.72
2022-09-21T19:34:19.846Z,99925.13
2022-09-21T19:39:12.292Z,99918.97
2022-09-21T19:44:10.295Z,99918.28
2022-09-21T19:49:18.132Z,99918.69
2022-09-21T19:54:33.372Z,99920.75
2022-09-21T19:59:44.953Z,99902.75
2022-09-21T20:04:46.133Z,99911.09
2022-09-21T20:09:44.721Z,99911.47
2022-09-21T20:15:00.581Z,99899.25
2022-09-21T20:20:01.210Z,99898.34
2022-09-21T20:25:01.715Z,99896.59
2022-09-21T20:29:53.992Z,99882.56
2022-09-21T20:34:45.694Z,99878.06
2022-09-21T20:39:38.120Z,99884.75
2022-09-21T20:44:29.872Z,99881.19
2022-09-21T20:49:21.559Z,99882.50
2022-09-21T20:54:13.385Z,99884.31
2022-09-21T20:59:04.949Z,99895.91
2022-09-21T21:04:01.831Z,99890.56
2022-09-21T21:08:53.729Z,99889.63
2022-09-21T21:13:45.698Z,99889.97
2022-09-21T21:18:40.085Z,99878.38
2022-09-21T21:23:52.107Z,99878.63
2022-09-21T21:28:43.939Z,99869.47
2022-09-21T21:33:35.573Z,99867.47
2022-09-21T21:38:27.213Z,99867.34
2022-09-21T21:43:19.236Z,99858.22
2022-09-21T21:48:10.942Z,99867.09
2022-09-21T21:53:03.325Z,99858.66
2022-09-21T21:57:55.012Z,99868.19
2022-09-21T22:02:46.926Z,99866.50
2022-09-21T22:07:40.168Z,99850.63
2022-09-21T22:12:31.780Z,99855.25
2022-09-21T22:17:24.490Z,99860.09
2022-09-21T22:22:16.092Z,99868.25
2022-09-21T22:27:07.829Z,99851.78
2022-09-21T22:32:00.763Z,99859.16
2022-09-21T22:36:52.588Z,99865.91
2022-09-21T22:41:44.217Z,99850.00
2022-09-21T22:46:36.568Z,99850.25
2022-09-21T22:51:29.256Z,99846.94
2022-09-21T22:56:26.484Z,99848.47
2022-09-21T23:01:25.352Z,99844.06
2022-09-21T23:06:19.594Z,99840.41
2022-09-21T23:11:21.866Z,99845.00
2022-09-21T23:16:15.532Z,99836.72
2022-09-21T23:21:11.341Z,99834.22
2022-09-21T23:26:14.660Z,99839.06
2022-09-21T23:31:09.806Z,99835.97
2022-09-21T23:36:02.192Z,99832.06
2022-09-21T23:40:54.136Z,99827.91
2022-09-21T23:45:45.837Z,99821.88
2022-09-21T23:50:37.426Z,99822.31
2022-09-21T23:55:30.929Z,99812.69
